Terminal Aerodrome Forecast
Issued by NWS

Home | Current Version | Previous Version | Text Only | Print | Product List | Glossary On
Versions: 1 2 3 4 5 6 7 8 9 10 11 12 13 14 15 16 17 18 19 20 21
000
FTUS44 KFWD 260900 AAA
TAFAFW
TAF AMD
KAFW 260901Z 2609/2706 17013KT P6SM OVC040
     FM261100 17013KT P6SM OVC015
      TEMPO 2613/2616 5SM BR OVC009
     FM261900 17015KT P6SM OVC018
     FM270000 16008KT 6SM BR OVC014
     FM270400 16005KT 4SM BR BKN007 OVC010=

USA.gov is the U.S. government's official web portal to all federal, state and local government web resources and services.